createdAt,value
2019-01-30T00:02:11.429Z,99269.77
2019-01-30T00:04:35.840Z,99271.39
2019-01-30T00:07:00.245Z,99268.88
2019-01-30T00:09:24.700Z,99269.50
2019-01-30T00:11:49.109Z,99275.59
2019-01-30T00:14:13.533Z,99269.53
2019-01-30T00:16:38.111Z,99267.28
2019-01-30T00:19:02.592Z,99266.92
2019-01-30T00:21:27.026Z,99257.08
2019-01-30T00:23:51.505Z,99255.22
2019-01-30T00:26:16.005Z,99258.25
2019-01-30T00:28:40.417Z,99257.08
2019-01-30T00:31:04.982Z,99252.33
2019-01-30T00:33:29.386Z,99246.22
2019-01-30T00:35:53.974Z,99249.23
2019-01-30T00:38:18.450Z,99245.44
2019-01-30T00:40:42.876Z,99244.40
2019-01-30T00:43:07.344Z,99243.94
2019-01-30T00:45:31.754Z,99242.84
2019-01-30T00:47:56.224Z,99240.00
2019-01-30T00:50:24.445Z,99240.39
2019-01-30T00:52:49.154Z,99244.10
2019-01-30T00:55:14.488Z,99241.45
2019-01-30T00:57:38.991Z,99239.73
2019-01-30T01:00:14.370Z,99236.81
2019-01-30T01:02:31.164Z,99235.89
2019-01-30T01:04:55.701Z,99228.69
2019-01-30T01:07:20.270Z,99229.50
2019-01-30T01:09:44.753Z,99233.11
2019-01-30T01:12:09.257Z,99228.09
2019-01-30T01:14:33.721Z,99227.83
2019-01-30T01:16:58.150Z,99225.68
2019-01-30T01:19:22.546Z,99220.57
2019-01-30T01:21:46.974Z,99220.77
2019-01-30T01:24:11.511Z,99223.50
2019-01-30T01:26:35.910Z,99220.57
2019-01-30T01:29:00.331Z,99219.66
2019-01-30T01:31:24.880Z,99218.38
2019-01-30T01:33:49.308Z,99219.29
2019-01-30T01:36:13.839Z,99209.88
2019-01-30T01:38:38.254Z,99215.05
2019-01-30T01:41:02.657Z,99211.98
2019-01-30T01:43:27.100Z,99210.64
2019-01-30T01:45:51.574Z,99208.30
2019-01-30T01:48:16.167Z,99202.86
2019-01-30T01:50:40.646Z,99198.39
2019-01-30T01:53:05.325Z,99197.30
2019-01-30T01:55:29.795Z,99196.16
2019-01-30T01:57:54.229Z,99195.66
2019-01-30T02:00:22.962Z,99188.53
2019-01-30T02:02:47.502Z,99182.08
2019-01-30T02:05:15.062Z,99182.35
2019-01-30T02:07:39.543Z,99181.53
2019-01-30T02:10:05.806Z,99180.84
2019-01-30T02:12:30.203Z,99172.51
2019-01-30T02:14:54.642Z,99170.91
2019-01-30T02:17:24.955Z,99164.66
2019-01-30T02:19:48.525Z,99159.35
2019-01-30T02:22:13.081Z,99155.02
2019-01-30T02:24:37.515Z,99152.67
2019-01-30T02:27:01.919Z,99151.99
2019-01-30T02:29:26.351Z,99142.67
2019-01-30T02:31:50.745Z,99141.57
2019-01-30T02:34:15.239Z,99140.66
2019-01-30T02:36:41.290Z,99131.53
2019-01-30T02:39:07.662Z,99130.73
2019-01-30T02:41:32.032Z,99125.13
2019-01-30T02:43:56.429Z,99129.00
2019-01-30T02:46:20.926Z,99135.34
2019-01-30T02:48:45.329Z,99128.54
2019-01-30T02:51:09.830Z,99129.00
2019-01-30T02:53:34.303Z,99130.78
2019-01-30T02:55:58.746Z,99127.89
2019-01-30T02:58:23.163Z,99130.27
2019-01-30T03:00:58.550Z,99131.02
2019-01-30T03:03:13.741Z,99130.09
2019-01-30T03:05:38.166Z,99125.09
2019-01-30T03:08:02.637Z,99118.97
2019-01-30T03:10:27.114Z,99120.07
2019-01-30T03:12:51.715Z,99123.87
2019-01-30T03:15:17.648Z,99128.30
2019-01-30T03:17:42.147Z,99125.65
2019-01-30T03:20:17.696Z,99116.05
2019-01-30T03:22:42.123Z,99121.09
2019-01-30T03:25:09.871Z,99118.02
2019-01-30T03:27:34.290Z,99120.83
2019-01-30T03:29:58.698Z,99122.71
2019-01-30T03:32:23.136Z,99122.25
2019-01-30T03:34:47.533Z,99131.92
2019-01-30T03:37:11.979Z,99127.30
2019-01-30T03:39:36.386Z,99127.38
2019-01-30T03:42:00.817Z,99124.62
2019-01-30T03:44:25.219Z,99121.88
2019-01-30T03:46:49.716Z,99123.16
2019-01-30T03:49:14.126Z,99116.42
2019-01-30T03:51:38.605Z,99113.85
2019-01-30T03:54:03.028Z,99111.63
2019-01-30T03:56:27.429Z,99109.71
2019-01-30T03:58:52.009Z,99109.06
2019-01-30T04:01:26.234Z,99108.48
2019-01-30T04:03:44.197Z,99104.51
2019-01-30T04:06:08.678Z,99108.20
2019-01-30T04:08:33.115Z,99105.70
2019-01-30T04:10:57.581Z,99103.92
2019-01-30T04:13:22.014Z,99099.25
2019-01-30T04:15:46.406Z,99102.09
2019-01-30T04:18:10.838Z,99095.25
2019-01-30T04:20:35.396Z,99093.56
2019-01-30T04:22:59.838Z,99095.72
2019-01-30T04:25:24.248Z,99094.61
2019-01-30T04:27:48.743Z,99086.92
2019-01-30T04:30:16.272Z,99081.48
2019-01-30T04:32:40.747Z,99086.02
2019-01-30T04:35:06.118Z,99079.21
2019-01-30T04:37:30.515Z,99076.47
2019-01-30T04:39:54.943Z,99081.55
2019-01-30T04:42:19.395Z,99082.81
2019-01-30T04:44:43.766Z,99074.09
2019-01-30T04:47:08.178Z,99074.94
2019-01-30T04:49:32.607Z,99070.84
2019-01-30T04:51:57.030Z,99077.84
2019-01-30T04:54:21.520Z,99075.75
2019-01-30T04:56:46.000Z,99074.28
2019-01-30T04:59:10.401Z,99078.52
2019-01-30T05:01:34.834Z,99073.67
2019-01-30T05:03:59.265Z,99075.85
2019-01-30T05:06:23.694Z,99070.73
2019-01-30T05:08:48.109Z,99067.81
2019-01-30T05:11:12.535Z,99065.59
2019-01-30T05:13:36.947Z,99059.84
2019-01-30T05:16:01.655Z,99063.09
2019-01-30T05:18:26.130Z,99060.97
2019-01-30T05:20:50.562Z,99062.18
2019-01-30T05:23:15.036Z,99059.25
2019-01-30T05:25:39.477Z,99058.08
2019-01-30T05:28:03.887Z,99051.83
2019-01-30T05:30:33.063Z,99045.35
2019-01-30T05:32:57.548Z,99049.32
2019-01-30T05:35:22.026Z,99049.19
2019-01-30T05:37:46.446Z,99040.41
2019-01-30T05:40:16.403Z,99045.55
2019-01-30T05:42:40.853Z,99045.55
2019-01-30T05:45:08.246Z,99045.03
2019-01-30T05:47:32.671Z,99039.06
2019-01-30T05:49:57.154Z,99047.98
2019-01-30T05:52:21.661Z,99039.66
2019-01-30T05:54:46.087Z,99043.08
2019-01-30T05:57:10.516Z,99048.83
2019-01-30T05:59:34.913Z,99050.49
2019-01-30T06:01:59.354Z,99046.17
2019-01-30T06:04:23.747Z,99046.84
2019-01-30T06:06:48.262Z,99049.13
2019-01-30T06:09:12.657Z,99054.36
2019-01-30T06:11:37.070Z,99052.38
2019-01-30T06:14:01.500Z,99044.11
2019-01-30T06:16:25.978Z,99041.67
2019-01-30T06:18:50.400Z,99040.77
2019-01-30T06:21:14.820Z,99047.95
2019-01-30T06:23:39.250Z,99046.48
2019-01-30T06:26:03.728Z,99038.61
2019-01-30T06:28:29.379Z,99041.31
2019-01-30T06:30:53.940Z,99039.95
2019-01-30T06:33:18.453Z,99042.00
2019-01-30T06:35:42.982Z,99038.29
2019-01-30T06:38:07.555Z,99032.59
2019-01-30T06:40:33.292Z,99028.78
2019-01-30T06:42:57.874Z,99029.69
2019-01-30T06:45:22.341Z,99029.50
2019-01-30T06:47:46.750Z,99027.58
2019-01-30T06:50:13.517Z,99032.56
2019-01-30T06:52:37.936Z,99033.56
2019-01-30T06:55:02.438Z,99032.27
2019-01-30T06:57:26.838Z,99027.64
2019-01-30T06:59:51.286Z,99030.54
2019-01-30T07:02:15.828Z,99023.25
2019-01-30T07:04:41.891Z,99024.16
2019-01-30T07:07:06.294Z,99022.05
2019-01-30T07:09:30.726Z,99015.27
2019-01-30T07:11:55.193Z,99012.41
2019-01-30T07:14:19.620Z,99014.03
2019-01-30T07:16:44.025Z,99006.72
2019-01-30T07:19:08.450Z,99008.52
2019-01-30T07:21:32.885Z,99011.93
2019-01-30T07:23:57.300Z,99011.83
2019-01-30T07:26:21.727Z,99004.86
2019-01-30T07:28:46.131Z,99003.45
2019-01-30T07:31:10.636Z,99003.64
2019-01-30T07:33:35.037Z,99005.95
2019-01-30T07:35:59.559Z,99007.08
2019-01-30T07:38:23.982Z,99013.30
2019-01-30T07:40:48.553Z,99012.91
2019-01-30T07:43:12.963Z,99014.16
2019-01-30T07:45:37.379Z,99018.89
2019-01-30T07:48:01.790Z,99017.66
2019-01-30T07:50:26.356Z,99017.44
2019-01-30T07:52:50.835Z,99020.41
2019-01-30T07:55:16.902Z,99018.14
2019-01-30T07:57:41.494Z,99017.78
2019-01-30T08:00:08.946Z,99010.41
2019-01-30T08:02:33.388Z,99023.27
2019-01-30T08:04:57.790Z,99024.28
2019-01-30T08:07:22.285Z,99022.90
2019-01-30T08:09:46.690Z,99023.68
2019-01-30T08:12:12.681Z,99022.98
2019-01-30T08:14:37.106Z,99025.45
2019-01-30T08:17:01.544Z,99026.03
2019-01-30T08:19:25.934Z,99019.28
2019-01-30T08:21:50.356Z,99032.14
2019-01-30T08:24:15.023Z,99026.54
2019-01-30T08:26:39.631Z,99025.64
2019-01-30T08:29:04.290Z,99031.01
2019-01-30T08:31:29.047Z,99033.09
2019-01-30T08:33:53.536Z,99024.97
2019-01-30T08:36:17.939Z,99026.78
2019-01-30T08:38:42.387Z,99029.98
2019-01-30T08:41:06.970Z,99029.55
2019-01-30T08:43:31.354Z,99026.95
2019-01-30T08:45:55.762Z,99027.91
2019-01-30T08:48:20.181Z,99026.52
2019-01-30T08:50:44.670Z,99035.26
2019-01-30T08:53:09.090Z,99027.12
2019-01-30T08:55:33.577Z,99028.25
2019-01-30T08:57:58.144Z,99036.00
2019-01-30T09:00:27.450Z,99029.22
2019-01-30T09:02:51.942Z,99027.95
2019-01-30T09:05:16.581Z,99029.62
2019-01-30T09:07:44.428Z,99029.64
2019-01-30T09:10:12.999Z,99020.59
2019-01-30T09:12:37.405Z,99022.44
2019-01-30T09:15:01.860Z,99018.93
2019-01-30T09:17:26.325Z,99016.38
2019-01-30T09:19:50.752Z,99017.75
2019-01-30T09:22:15.218Z,99013.83
2019-01-30T09:24:40.528Z,99012.71
2019-01-30T09:27:05.006Z,99014.41
2019-01-30T09:29:29.429Z,99015.73
2019-01-30T09:31:53.967Z,99015.83
2019-01-30T09:34:18.391Z,99014.02
2019-01-30T09:36:42.831Z,99007.34
2019-01-30T09:39:08.612Z,99012.07
2019-01-30T09:41:33.099Z,99006.24
2019-01-30T09:43:57.472Z,98995.67
2019-01-30T09:46:21.946Z,98996.73
2019-01-30T09:48:46.297Z,99000.66
2019-01-30T09:51:10.820Z,98985.99
2019-01-30T09:53:35.264Z,98985.74
2019-01-30T09:55:59.705Z,98985.21
2019-01-30T09:58:24.105Z,98980.23
2019-01-30T10:00:48.523Z,98982.47
2019-01-30T10:03:12.915Z,98975.17
2019-01-30T10:05:37.470Z,98981.09
2019-01-30T10:08:02.008Z,98982.28
2019-01-30T10:10:37.567Z,98976.12
2019-01-30T10:13:02.220Z,98972.51
2019-01-30T10:15:29.425Z,98969.07
2019-01-30T10:17:54.838Z,98972.51
2019-01-30T10:20:23.959Z,98959.31
2019-01-30T10:22:48.608Z,98966.00
2019-01-30T10:25:13.262Z,98963.95
2019-01-30T10:27:37.798Z,98963.43
2019-01-30T10:30:02.179Z,98960.83
2019-01-30T10:32:26.976Z,98953.37
2019-01-30T10:34:51.369Z,98950.63
2019-01-30T10:37:15.804Z,98947.23
2019-01-30T10:39:40.200Z,98948.84
2019-01-30T10:42:04.960Z,98941.75
2019-01-30T10:44:29.345Z,98939.52
2019-01-30T10:46:53.790Z,98933.64
2019-01-30T10:49:18.195Z,98937.66
2019-01-30T10:51:42.670Z,98929.30
2019-01-30T10:54:07.175Z,98923.20
2019-01-30T10:56:31.577Z,98916.11
2019-01-30T10:58:56.068Z,98911.98
2019-01-30T11:01:20.612Z,98898.28
2019-01-30T11:03:45.138Z,98897.84
2019-01-30T11:06:09.523Z,98894.21
2019-01-30T11:08:34.569Z,98893.75
2019-01-30T11:11:07.466Z,98883.59
2019-01-30T11:13:25.162Z,98886.88
2019-01-30T11:15:49.570Z,98890.53
2019-01-30T11:18:14.616Z,98886.17
2019-01-30T11:20:39.252Z,98880.36
2019-01-30T11:23:03.837Z,98875.80
2019-01-30T11:25:33.802Z,98878.94
2019-01-30T11:27:58.267Z,98875.70
2019-01-30T11:30:23.034Z,98874.63
2019-01-30T11:32:47.603Z,98869.16
2019-01-30T11:35:12.166Z,98868.62
2019-01-30T11:37:36.568Z,98862.48
2019-01-30T11:40:01.090Z,98852.98
2019-01-30T11:42:25.820Z,98847.80
2019-01-30T11:44:51.522Z,98848.56
2019-01-30T11:47:16.276Z,98838.98
2019-01-30T11:49:40.722Z,98837.52
2019-01-30T11:52:05.379Z,98829.97
2019-01-30T11:54:38.660Z,98827.84
2019-01-30T11:56:55.973Z,98818.59
2019-01-30T11:59:20.478Z,98814.55
2019-01-30T12:01:44.962Z,98813.03
2019-01-30T12:04:17.796Z,98812.53
2019-01-30T12:06:35.657Z,98813.17
2019-01-30T12:09:00.072Z,98807.03
2019-01-30T12:11:24.508Z,98808.20
2019-01-30T12:13:48.937Z,98807.88
2019-01-30T12:16:13.528Z,98806.51
2019-01-30T12:18:38.013Z,98811.97
2019-01-30T12:21:02.453Z,98801.20
2019-01-30T12:23:27.018Z,98798.80
2019-01-30T12:25:51.618Z,98797.61
2019-01-30T12:28:16.708Z,98790.16
2019-01-30T12:30:41.310Z,98783.53
2019-01-30T12:33:05.706Z,98786.16
2019-01-30T12:35:30.151Z,98781.25
2019-01-30T12:37:54.699Z,98782.52
2019-01-30T12:40:23.228Z,98789.13
2019-01-30T12:42:47.793Z,98781.40
2019-01-30T12:45:15.233Z,98778.55
2019-01-30T12:47:39.808Z,98772.11
2019-01-30T12:50:07.538Z,98784.62
2019-01-30T12:52:32.043Z,98772.22
2019-01-30T12:54:56.441Z,98773.86
2019-01-30T12:57:20.869Z,98772.41
2019-01-30T12:59:45.349Z,98777.70
2019-01-30T13:02:09.896Z,98781.15
2019-01-30T13:04:38.781Z,98785.41
2019-01-30T13:07:00.492Z,98775.30
2019-01-30T13:09:24.863Z,98779.73
2019-01-30T13:11:49.264Z,98773.44
2019-01-30T13:14:13.693Z,98773.69
2019-01-30T13:16:38.097Z,98767.05
2019-01-30T13:19:02.528Z,98767.05
2019-01-30T13:21:26.990Z,98766.05
2019-01-30T13:23:51.557Z,98769.71
2019-01-30T13:26:15.982Z,98769.39
2019-01-30T13:28:40.410Z,98771.00
2019-01-30T13:31:05.046Z,98767.51
2019-01-30T13:33:29.555Z,98760.89
2019-01-30T13:35:54.027Z,98766.09
2019-01-30T13:38:18.469Z,98767.81
2019-01-30T13:40:43.042Z,98758.99
2019-01-30T13:43:07.719Z,98763.66
2019-01-30T13:45:32.268Z,98761.70
2019-01-30T13:47:56.922Z,98764.09
2019-01-30T13:50:25.785Z,98765.70
2019-01-30T13:52:50.282Z,98761.30
2019-01-30T13:55:15.111Z,98769.61
2019-01-30T13:57:39.669Z,98767.63
2019-01-30T14:00:05.770Z,98772.61
2019-01-30T14:02:30.200Z,98772.85
2019-01-30T14:04:59.460Z,98769.45
2019-01-30T14:07:20.745Z,98775.59
2019-01-30T14:09:45.221Z,98777.17
2019-01-30T14:12:09.628Z,98777.47
2019-01-30T14:14:34.033Z,98778.28
2019-01-30T14:16:58.454Z,98777.59
2019-01-30T14:19:22.917Z,98779.39
2019-01-30T14:21:47.359Z,98771.73
2019-01-30T14:24:11.827Z,98774.34
2019-01-30T14:26:36.386Z,98773.80
2019-01-30T14:29:00.882Z,98770.77
2019-01-30T14:31:25.273Z,98763.92
2019-01-30T14:33:49.655Z,98773.73
2019-01-30T14:36:14.202Z,98772.48
2019-01-30T14:38:38.700Z,98765.17
2019-01-30T14:41:03.518Z,98714.99
2019-01-30T14:43:27.952Z,98768.33
2019-01-30T14:45:52.330Z,98762.47
2019-01-30T14:48:16.930Z,98768.00
2019-01-30T14:50:41.388Z,98771.77
2019-01-30T14:53:06.058Z,98766.55
2019-01-30T14:55:30.449Z,98772.98
2019-01-30T14:57:55.311Z,98768.56
2019-01-30T15:00:27.796Z,98769.83
2019-01-30T15:02:52.264Z,98773.98
2019-01-30T15:05:22.277Z,98770.14
2019-01-30T15:07:43.985Z,98777.15
2019-01-30T15:10:11.396Z,98766.59
2019-01-30T15:12:35.828Z,98765.41
2019-01-30T15:15:00.254Z,98776.59
2019-01-30T15:17:32.178Z,98770.12
2019-01-30T15:19:56.642Z,98769.19
2019-01-30T15:22:21.066Z,98768.09
2019-01-30T15:24:45.463Z,98775.28
2019-01-30T15:27:09.896Z,98778.16
2019-01-30T15:29:34.378Z,98776.42
2019-01-30T15:31:58.955Z,98778.22
2019-01-30T15:34:23.361Z,98783.78
2019-01-30T15:36:47.782Z,98783.20
2019-01-30T15:39:12.224Z,98787.63
2019-01-30T15:41:36.797Z,98778.84
2019-01-30T15:44:01.309Z,98778.82
2019-01-30T15:46:25.707Z,98781.47
2019-01-30T15:48:50.213Z,98779.00
2019-01-30T15:51:14.612Z,98779.14
2019-01-30T15:53:39.059Z,98773.77
2019-01-30T15:56:04.173Z,98777.92
2019-01-30T15:58:28.679Z,98776.44
2019-01-30T16:00:59.386Z,98779.77
2019-01-30T16:03:23.820Z,98782.89
2019-01-30T16:05:48.278Z,98779.67
2019-01-30T16:08:12.759Z,98780.15
2019-01-30T16:10:37.276Z,98778.88
2019-01-30T16:13:01.798Z,98789.09
2019-01-30T16:15:35.226Z,98783.34
2019-01-30T16:17:59.642Z,98791.39
2019-01-30T16:20:24.117Z,98792.99
2019-01-30T16:22:48.666Z,98792.08
2019-01-30T16:25:13.442Z,98799.77
2019-01-30T16:27:37.884Z,98796.41
2019-01-30T16:30:02.371Z,98791.64
2019-01-30T16:32:29.823Z,98797.72
2019-01-30T16:34:54.252Z,98746.41
2019-01-30T16:37:18.635Z,98799.14
2019-01-30T16:39:43.142Z,98797.34
2019-01-30T16:42:07.529Z,98796.53
2019-01-30T16:44:31.992Z,98794.05
2019-01-30T16:46:56.426Z,98794.91
2019-01-30T16:49:20.839Z,98788.14
2019-01-30T16:51:45.289Z,98792.86
2019-01-30T16:54:09.704Z,98788.62
2019-01-30T16:56:34.131Z,98787.70
2019-01-30T16:58:58.592Z,98785.59
2019-01-30T17:01:23.031Z,98792.83
2019-01-30T17:03:47.454Z,98787.20
2019-01-30T17:06:12.065Z,98783.14
2019-01-30T17:08:36.601Z,98787.63
2019-01-30T17:11:01.038Z,98788.54
2019-01-30T17:13:25.444Z,98790.02
2019-01-30T17:15:49.908Z,98792.45
2019-01-30T17:18:14.646Z,98793.56
2019-01-30T17:20:40.699Z,98795.38
2019-01-30T17:23:05.671Z,98795.22
2019-01-30T17:25:30.645Z,98801.98
2019-01-30T17:27:55.123Z,98799.23
2019-01-30T17:30:25.478Z,98798.79
2019-01-30T17:32:49.989Z,98795.67
2019-01-30T17:35:14.643Z,98799.39
2019-01-30T17:37:39.191Z,98796.84
2019-01-30T17:40:05.543Z,98792.09
2019-01-30T17:42:29.998Z,98785.62
2019-01-30T17:44:54.422Z,98780.70
2019-01-30T17:47:28.056Z,98788.98
2019-01-30T17:49:52.484Z,98787.67
2019-01-30T17:52:16.972Z,98791.72
2019-01-30T17:54:41.460Z,98791.59
2019-01-30T17:57:08.548Z,98790.64
2019-01-30T17:59:32.990Z,98791.87
2019-01-30T18:01:57.392Z,98792.95
2019-01-30T18:04:21.810Z,98793.28
2019-01-30T18:06:46.216Z,98789.05
2019-01-30T18:09:10.843Z,98789.22
2019-01-30T18:11:35.339Z,98786.77
2019-01-30T18:13:59.852Z,98774.97
2019-01-30T18:16:26.847Z,98781.19
2019-01-30T18:18:50.517Z,98779.09
2019-01-30T18:21:14.998Z,98772.97
2019-01-30T18:23:39.426Z,98772.27
2019-01-30T18:26:04.121Z,98773.47
2019-01-30T18:28:28.531Z,98778.70
2019-01-30T18:30:53.080Z,98780.06
2019-01-30T18:33:17.550Z,98779.44
2019-01-30T18:35:42.120Z,98779.70
2019-01-30T18:38:06.774Z,98776.91
2019-01-30T18:40:34.145Z,98782.37
2019-01-30T18:42:58.564Z,98778.75
2019-01-30T18:45:27.162Z,98778.39
2019-01-30T18:47:51.645Z,98776.99
2019-01-30T18:50:18.784Z,98776.15
2019-01-30T18:52:43.327Z,98777.79
2019-01-30T18:55:08.632Z,98777.29
2019-01-30T18:57:33.109Z,98783.17
2019-01-30T18:59:57.654Z,98779.22
2019-01-30T19:02:32.612Z,98776.99
2019-01-30T19:04:57.069Z,98775.03
2019-01-30T19:07:21.522Z,98773.42
2019-01-30T19:09:46.023Z,98778.97
2019-01-30T19:12:10.615Z,98777.05
2019-01-30T19:14:35.037Z,98776.81
2019-01-30T19:16:59.553Z,98767.65
2019-01-30T19:19:23.978Z,98771.67
2019-01-30T19:21:48.543Z,98769.59
2019-01-30T19:24:13.117Z,98771.55
2019-01-30T19:26:37.695Z,98771.27
2019-01-30T19:29:02.181Z,98774.04
2019-01-30T19:31:26.620Z,98773.72
2019-01-30T19:33:51.244Z,98771.67
2019-01-30T19:36:15.645Z,98764.17
2019-01-30T19:38:40.264Z,98767.97
2019-01-30T19:41:04.822Z,98771.95
2019-01-30T19:43:29.324Z,98774.15
2019-01-30T19:45:53.737Z,98771.82
2019-01-30T19:48:18.351Z,98774.80
2019-01-30T19:50:42.843Z,98785.07
2019-01-30T19:53:07.368Z,98774.25
2019-01-30T19:55:31.881Z,98779.22
2019-01-30T19:57:56.869Z,98774.97
2019-01-30T20:00:23.980Z,98779.70
2019-01-30T20:02:48.722Z,98774.02
2019-01-30T20:05:14.709Z,98777.31
2019-01-30T20:07:39.131Z,98774.15
2019-01-30T20:10:05.262Z,98772.09
2019-01-30T20:12:29.752Z,98778.33
2019-01-30T20:14:54.327Z,98779.52
2019-01-30T20:17:19.345Z,98777.00
2019-01-30T20:19:43.870Z,98775.80
2019-01-30T20:22:08.411Z,98769.47
2019-01-30T20:24:32.843Z,98769.97
2019-01-30T20:26:57.260Z,98770.08
2019-01-30T20:29:24.706Z,98774.80
2019-01-30T20:31:49.188Z,98762.66
2019-01-30T20:34:13.650Z,98767.38
2019-01-30T20:36:38.135Z,98756.76
2019-01-30T20:39:02.695Z,98760.13
2019-01-30T20:41:27.271Z,98759.67
2019-01-30T20:43:51.680Z,98759.63
2019-01-30T20:46:16.199Z,98762.92
2019-01-30T20:48:47.061Z,98765.77
2019-01-30T20:51:06.721Z,98755.00
2019-01-30T20:53:31.124Z,98760.55
2019-01-30T20:55:55.628Z,98759.03
2019-01-30T20:58:20.041Z,98760.88
2019-01-30T21:00:44.498Z,98761.67
2019-01-30T21:03:08.884Z,98764.89
2019-01-30T21:05:33.383Z,98768.52
2019-01-30T21:07:58.024Z,98762.83
2019-01-30T21:10:30.872Z,98761.05
2019-01-30T21:12:55.363Z,98761.92
2019-01-30T21:15:19.913Z,98766.50
2019-01-30T21:17:44.788Z,98758.68
2019-01-30T21:20:11.322Z,98765.90
2019-01-30T21:22:35.838Z,98764.42
2019-01-30T21:25:00.238Z,98763.27
2019-01-30T21:27:24.682Z,98766.13
2019-01-30T21:29:50.648Z,98763.51
2019-01-30T21:32:15.301Z,98772.09
2019-01-30T21:34:39.782Z,98768.47
2019-01-30T21:37:04.295Z,98762.36
2019-01-30T21:39:28.698Z,98762.65
2019-01-30T21:41:53.141Z,98764.13
2019-01-30T21:44:17.535Z,98763.09
2019-01-30T21:46:41.968Z,98764.52
2019-01-30T21:49:06.636Z,98755.39
2019-01-30T21:51:31.131Z,98759.58
2019-01-30T21:53:55.646Z,98757.60
2019-01-30T21:56:20.046Z,98759.35
2019-01-30T21:58:44.476Z,98765.77
2019-01-30T22:01:08.866Z,98766.87
2019-01-30T22:03:33.289Z,98767.70
2019-01-30T22:05:57.695Z,98762.75
2019-01-30T22:08:22.261Z,98765.22
2019-01-30T22:10:46.733Z,98767.91
2019-01-30T22:13:11.180Z,98765.45
2019-01-30T22:15:35.587Z,98771.07
2019-01-30T22:18:00.016Z,98763.64
2019-01-30T22:20:25.966Z,98766.45
2019-01-30T22:22:50.506Z,98764.85
2019-01-30T22:25:20.543Z,98773.59
2019-01-30T22:27:43.652Z,98769.52
2019-01-30T22:30:13.923Z,98771.94
2019-01-30T22:32:38.352Z,98772.44
2019-01-30T22:35:02.762Z,98768.52
2019-01-30T22:37:27.172Z,98773.82
2019-01-30T22:39:51.611Z,98768.04
2019-01-30T22:42:16.015Z,98776.17
2019-01-30T22:44:40.460Z,98774.34
2019-01-30T22:47:05.002Z,98774.91
2019-01-30T22:49:29.433Z,98777.37
2019-01-30T22:51:53.838Z,98781.17
2019-01-30T22:54:18.279Z,98776.86
2019-01-30T22:56:42.673Z,98779.59
2019-01-30T22:59:07.104Z,98786.98
2019-01-30T23:01:40.487Z,98780.69
2019-01-30T23:04:13.659Z,98781.22
2019-01-30T23:06:52.701Z,98784.14
2019-01-30T23:09:31.371Z,98773.97
2019-01-30T23:37:11.944Z,98776.36
2019-01-30T23:39:45.162Z,98776.44
2019-01-30T23:42:24.286Z,98778.27
2019-01-30T23:45:09.648Z,98782.72
2019-01-30T23:47:45.795Z,98783.16
2019-01-30T23:50:22.189Z,98782.54
2019-01-30T23:53:21.061Z,98788.27
2019-01-30T23:55:51.489Z,98797.19
2019-01-30T23:58:21.687Z,98797.57
